createdAt,value
2018-05-14T00:00:34.382Z,1018.22
2018-05-14T00:02:01.700Z,1018.25
2018-05-14T00:03:29.090Z,1018.25
2018-05-14T00:04:56.367Z,1018.23
2018-05-14T00:06:23.645Z,1018.24
2018-05-14T00:07:50.981Z,1018.23
2018-05-14T00:09:18.488Z,1018.24
2018-05-14T00:10:45.847Z,1018.28
2018-05-14T00:12:13.112Z,1018.27
2018-05-14T00:13:40.440Z,1018.27
2018-05-14T00:15:07.754Z,1018.27
2018-05-14T00:16:35.253Z,1018.26
2018-05-14T00:18:02.657Z,1018.25
2018-05-14T00:19:30.022Z,1018.26
2018-05-14T00:20:57.104Z,1018.25
2018-05-14T00:22:24.576Z,1018.25
2018-05-14T00:23:52.039Z,1018.25
2018-05-14T00:25:19.370Z,1018.27
2018-05-14T00:26:46.809Z,1018.28
2018-05-14T00:28:13.917Z,1018.28
2018-05-14T00:29:41.444Z,1018.26
2018-05-14T00:31:08.848Z,1018.28
2018-05-14T00:32:36.139Z,1018.29
2018-05-14T00:34:03.566Z,1018.29
2018-05-14T00:35:30.948Z,1018.28
2018-05-14T00:36:57.975Z,1018.27
2018-05-14T00:38:25.218Z,1018.28
2018-05-14T00:39:52.610Z,1018.29
2018-05-14T00:41:19.927Z,1018.30
2018-05-14T00:42:47.297Z,1018.35
2018-05-14T00:44:14.510Z,1018.32
2018-05-14T00:45:41.961Z,1018.33
2018-05-14T00:47:09.120Z,1018.32
2018-05-14T00:48:36.738Z,1018.32
2018-05-14T00:50:04.021Z,1018.34
2018-05-14T00:51:31.357Z,1018.31
2018-05-14T00:52:58.710Z,1018.34
2018-05-14T00:54:26.012Z,1018.32
2018-05-14T00:55:53.497Z,1018.31
2018-05-14T00:57:21.043Z,1018.29
2018-05-14T00:58:48.395Z,1018.31
2018-05-14T01:00:15.873Z,1018.30
2018-05-14T01:01:43.218Z,1018.29
2018-05-14T01:03:10.763Z,1018.31
2018-05-14T01:04:38.100Z,1018.30
2018-05-14T01:06:05.220Z,1018.32
2018-05-14T01:07:32.429Z,1018.29
2018-05-14T01:08:59.664Z,1018.30
2018-05-14T01:10:27.080Z,1018.29
2018-05-14T01:11:54.404Z,1018.28
2018-05-14T01:13:21.892Z,1018.27
2018-05-14T01:14:49.172Z,1018.28
2018-05-14T01:16:16.682Z,1018.30
2018-05-14T01:17:43.756Z,1018.28
2018-05-14T01:19:11.258Z,1018.23
2018-05-14T01:20:38.706Z,1018.23
2018-05-14T01:22:06.069Z,1018.22
2018-05-14T01:23:33.529Z,1018.22
2018-05-14T01:25:00.993Z,1018.21
2018-05-14T01:26:28.287Z,1018.25
2018-05-14T01:27:55.602Z,1018.25
2018-05-14T01:29:23.004Z,1018.28
2018-05-14T01:30:50.368Z,1018.28
2018-05-14T01:32:17.943Z,1018.27
2018-05-14T01:33:45.373Z,1018.28
2018-05-14T01:35:12.786Z,1018.30
2018-05-14T01:36:40.155Z,1018.28
2018-05-14T01:38:07.436Z,1018.29
2018-05-14T01:39:34.760Z,1018.28
2018-05-14T01:41:02.153Z,1018.28
2018-05-14T01:42:29.365Z,1018.27
2018-05-14T01:43:56.673Z,1018.25
2018-05-14T01:45:24.053Z,1018.24
2018-05-14T01:46:51.551Z,1018.22
2018-05-14T01:48:18.953Z,1018.22
2018-05-14T01:49:46.216Z,1018.24
2018-05-14T01:51:13.628Z,1018.23
2018-05-14T01:52:40.852Z,1018.22
2018-05-14T01:54:07.989Z,1018.22
2018-05-14T01:55:35.391Z,1018.23
2018-05-14T01:57:02.711Z,1018.23
2018-05-14T01:58:30.089Z,1018.25
2018-05-14T01:59:57.072Z,1018.26
2018-05-14T02:01:24.430Z,1018.26
2018-05-14T02:02:51.689Z,1018.24
2018-05-14T02:04:19.122Z,1018.25
2018-05-14T02:05:46.349Z,1018.27
2018-05-14T02:07:13.716Z,1018.28
2018-05-14T02:08:41.044Z,1018.27
2018-05-14T02:10:08.397Z,1018.30
2018-05-14T02:11:35.730Z,1018.30
2018-05-14T02:13:03.200Z,1018.32
2018-05-14T02:14:30.524Z,1018.32
2018-05-14T02:15:57.796Z,1018.31
2018-05-14T02:17:24.900Z,1018.31
2018-05-14T02:18:52.386Z,1018.32
2018-05-14T02:20:19.578Z,1018.29
2018-05-14T02:21:46.902Z,1018.30
2018-05-14T02:23:14.177Z,1018.29
2018-05-14T02:24:41.692Z,1018.28
2018-05-14T02:26:09.002Z,1018.30
2018-05-14T02:27:36.150Z,1018.31
2018-05-14T02:29:03.580Z,1018.31
2018-05-14T02:30:30.908Z,1018.30
2018-05-14T02:31:58.226Z,1018.32
2018-05-14T02:33:25.682Z,1018.30
2018-05-14T02:34:53.241Z,1018.30
2018-05-14T02:36:20.370Z,1018.33
2018-05-14T02:37:47.885Z,1018.28
2018-05-14T02:39:15.415Z,1018.29
2018-05-14T02:40:42.775Z,1018.32
2018-05-14T02:42:10.061Z,1018.32
2018-05-14T02:43:37.442Z,1018.33
2018-05-14T02:45:04.939Z,1018.31
2018-05-14T02:46:32.077Z,1018.33
2018-05-14T02:47:59.293Z,1018.35
2018-05-14T02:49:26.583Z,1018.33
2018-05-14T02:50:53.880Z,1018.32
2018-05-14T02:52:21.417Z,1018.32
2018-05-14T02:53:48.663Z,1018.31
2018-05-14T02:55:15.947Z,1018.32
2018-05-14T02:56:43.471Z,1018.32
2018-05-14T02:58:10.790Z,1018.32
2018-05-14T02:59:38.253Z,1018.34
2018-05-14T03:01:05.628Z,1018.33
2018-05-14T03:02:33.022Z,1018.32
2018-05-14T03:04:00.373Z,1018.34
2018-05-14T03:05:27.380Z,1018.36
2018-05-14T03:06:54.668Z,1018.38
2018-05-14T03:08:22.067Z,1018.39
2018-05-14T03:09:49.355Z,1018.42
2018-05-14T03:11:16.793Z,1018.43
2018-05-14T03:12:43.992Z,1018.43
2018-05-14T03:14:11.410Z,1018.44
2018-05-14T03:15:38.717Z,1018.42
2018-05-14T03:17:06.020Z,1018.41
2018-05-14T03:18:33.378Z,1018.39
2018-05-14T03:20:00.579Z,1018.41
2018-05-14T03:21:27.858Z,1018.46
2018-05-14T03:22:55.087Z,1018.46
2018-05-14T03:24:22.639Z,1018.45
2018-05-14T03:25:49.833Z,1018.48
2018-05-14T03:27:17.374Z,1018.49
2018-05-14T03:28:44.522Z,1018.50
2018-05-14T03:30:12.061Z,1018.48
2018-05-14T03:31:39.376Z,1018.43
2018-05-14T03:33:06.596Z,1018.48
2018-05-14T03:34:33.950Z,1018.48
2018-05-14T03:36:01.260Z,1018.48
2018-05-14T03:37:28.380Z,1018.48
2018-05-14T03:38:55.846Z,1018.49
2018-05-14T03:40:23.395Z,1018.49
2018-05-14T03:41:50.714Z,1018.53
2018-05-14T03:43:18.177Z,1018.51
2018-05-14T03:44:45.787Z,1018.50
2018-05-14T03:46:13.246Z,1018.48
2018-05-14T03:47:40.346Z,1018.49
2018-05-14T03:49:07.725Z,1018.51
2018-05-14T03:50:35.128Z,1018.51
2018-05-14T03:52:02.319Z,1018.50
2018-05-14T03:53:29.792Z,1018.52
2018-05-14T03:54:57.038Z,1018.55
2018-05-14T03:56:24.443Z,1018.59
2018-05-14T03:57:51.903Z,1018.60
2018-05-14T03:59:19.296Z,1018.61
2018-05-14T04:00:46.819Z,1018.63
2018-05-14T04:02:14.112Z,1018.67
2018-05-14T04:03:41.530Z,1018.65
2018-05-14T04:05:08.981Z,1018.65
2018-05-14T04:06:36.163Z,1018.64
2018-05-14T04:08:03.448Z,1018.65
2018-05-14T04:09:30.823Z,1018.64
2018-05-14T04:10:58.014Z,1018.62
2018-05-14T04:12:25.496Z,1018.60
2018-05-14T04:13:52.798Z,1018.59
2018-05-14T04:15:20.179Z,1018.59
2018-05-14T04:16:47.627Z,1018.59
2018-05-14T04:18:14.854Z,1018.59
2018-05-14T04:19:42.168Z,1018.59
2018-05-14T04:21:09.514Z,1018.59
2018-05-14T04:22:36.839Z,1018.63
2018-05-14T04:24:04.293Z,1018.61
2018-05-14T04:25:31.484Z,1018.63
2018-05-14T04:26:58.767Z,1018.62
2018-05-14T04:28:26.064Z,1018.63
2018-05-14T04:29:53.512Z,1018.63
2018-05-14T04:31:20.681Z,1018.63
2018-05-14T04:32:48.202Z,1018.62
2018-05-14T04:34:15.528Z,1018.61
2018-05-14T04:35:42.853Z,1018.61
2018-05-14T04:37:10.127Z,1018.62
2018-05-14T04:38:37.551Z,1018.62
2018-05-14T04:40:05.013Z,1018.62
2018-05-14T04:41:32.380Z,1018.62
2018-05-14T04:42:59.563Z,1018.65
2018-05-14T04:44:27.079Z,1018.65
2018-05-14T04:45:54.425Z,1018.64
2018-05-14T04:47:21.876Z,1018.62
2018-05-14T04:48:49.144Z,1018.62
2018-05-14T04:50:16.647Z,1018.62
2018-05-14T04:51:43.846Z,1018.65
2018-05-14T04:53:11.269Z,1018.65
2018-05-14T04:54:38.462Z,1018.67
2018-05-14T04:56:05.884Z,1018.69
2018-05-14T04:57:33.221Z,1018.67
2018-05-14T04:59:00.435Z,1018.70
2018-05-14T05:00:27.590Z,1018.70
2018-05-14T05:01:54.861Z,1018.67
2018-05-14T05:03:22.104Z,1018.69
2018-05-14T05:04:49.721Z,1018.70
2018-05-14T05:06:17.064Z,1018.69
2018-05-14T05:07:44.359Z,1018.69
2018-05-14T05:09:11.721Z,1018.63
2018-05-14T05:10:39.100Z,1018.62
2018-05-14T05:12:06.393Z,1018.62
2018-05-14T05:13:33.787Z,1018.62
2018-05-14T05:15:01.337Z,1018.62
2018-05-14T05:16:28.618Z,1018.62
2018-05-14T05:17:55.753Z,1018.59
2018-05-14T05:19:23.227Z,1018.60
2018-05-14T05:20:50.587Z,1018.62
2018-05-14T05:22:18.095Z,1018.59
2018-05-14T05:23:45.582Z,1018.57
2018-05-14T05:25:13.080Z,1018.60
2018-05-14T05:26:40.463Z,1018.58
2018-05-14T05:28:07.968Z,1018.58
2018-05-14T05:29:35.606Z,1018.53
2018-05-14T05:31:02.800Z,1018.57
2018-05-14T05:32:29.988Z,1018.57
2018-05-14T05:33:57.283Z,1018.57
2018-05-14T05:35:24.885Z,1018.63
2018-05-14T05:36:52.239Z,1018.62
2018-05-14T05:38:19.628Z,1018.62
2018-05-14T05:39:47.156Z,1018.64
2018-05-14T05:41:14.629Z,1018.67
2018-05-14T05:42:41.913Z,1018.65
2018-05-14T05:44:09.355Z,1018.65
2018-05-14T05:45:36.731Z,1018.65
2018-05-14T05:47:03.953Z,1018.66
2018-05-14T05:48:31.471Z,1018.64
2018-05-14T05:49:58.776Z,1018.65
2018-05-14T05:51:26.183Z,1018.62
2018-05-14T05:52:53.709Z,1018.61
2018-05-14T05:54:21.068Z,1018.62
2018-05-14T05:55:48.418Z,1018.61
2018-05-14T05:57:16.044Z,1018.61
2018-05-14T05:58:43.491Z,1018.60
2018-05-14T06:00:10.952Z,1018.59
2018-05-14T06:01:38.403Z,1018.58
2018-05-14T06:03:05.782Z,1018.57
2018-05-14T06:04:33.109Z,1018.59
2018-05-14T06:06:00.694Z,1018.57
2018-05-14T06:07:28.084Z,1018.57
2018-05-14T06:08:55.491Z,1018.56
2018-05-14T06:10:22.978Z,1018.59
2018-05-14T06:11:50.502Z,1018.57
2018-05-14T06:13:18.087Z,1018.56
2018-05-14T06:14:45.617Z,1018.56
2018-05-14T06:16:13.281Z,1018.56
2018-05-14T06:17:40.700Z,1018.55
2018-05-14T06:19:08.142Z,1018.56
2018-05-14T06:20:35.634Z,1018.58
2018-05-14T06:22:03.144Z,1018.57
2018-05-14T06:23:30.458Z,1018.55
2018-05-14T06:24:57.753Z,1018.57
2018-05-14T06:26:25.060Z,1018.56
2018-05-14T06:27:52.285Z,1018.58
2018-05-14T06:29:19.689Z,1018.58
2018-05-14T06:30:47.086Z,1018.59
2018-05-14T06:32:14.744Z,1018.61
2018-05-14T06:33:42.038Z,1018.65
2018-05-14T06:35:09.514Z,1018.58
2018-05-14T06:36:36.377Z,1018.57
2018-05-14T06:38:03.858Z,1018.54
2018-05-14T06:39:31.256Z,1018.53
2018-05-14T06:40:58.516Z,1018.56
2018-05-14T06:42:26.024Z,1018.56
2018-05-14T06:43:53.495Z,1018.57
2018-05-14T06:45:20.904Z,1018.55
2018-05-14T06:46:48.534Z,1018.56
2018-05-14T06:48:15.955Z,1018.59
2018-05-14T06:49:43.503Z,1018.59
2018-05-14T06:51:10.739Z,1018.58
2018-05-14T06:52:38.134Z,1018.59
2018-05-14T06:54:05.607Z,1018.57
2018-05-14T06:55:32.942Z,1018.58
2018-05-14T06:57:00.244Z,1018.57
2018-05-14T06:58:27.653Z,1018.54
2018-05-14T06:59:54.990Z,1018.57
2018-05-14T07:01:22.421Z,1018.56
2018-05-14T07:02:49.885Z,1018.54
2018-05-14T07:04:17.464Z,1018.56
2018-05-14T07:05:44.916Z,1018.59
2018-05-14T07:07:12.484Z,1018.59
2018-05-14T07:08:39.956Z,1018.61
2018-05-14T07:10:07.409Z,1018.64
2018-05-14T07:11:34.845Z,1018.62
2018-05-14T07:13:02.298Z,1018.63
2018-05-14T07:14:29.710Z,1018.66
2018-05-14T07:15:57.324Z,1018.65
2018-05-14T07:17:24.798Z,1018.62
2018-05-14T07:18:52.399Z,1018.65
2018-05-14T07:20:20.019Z,1018.64
2018-05-14T07:21:47.502Z,1018.61
2018-05-14T07:23:14.762Z,1018.60
2018-05-14T07:24:42.300Z,1018.58
2018-05-14T07:26:09.586Z,1018.62
2018-05-14T07:27:37.116Z,1018.59
2018-05-14T07:29:04.593Z,1018.63
2018-05-14T07:30:32.026Z,1018.65
2018-05-14T07:31:59.252Z,1018.65
2018-05-14T07:33:26.856Z,1018.60
2018-05-14T07:34:54.242Z,1018.59
2018-05-14T07:36:21.852Z,1018.65
2018-05-14T07:37:49.161Z,1018.69
2018-05-14T07:39:16.523Z,1018.70
2018-05-14T07:40:43.958Z,1018.71
2018-05-14T07:42:11.388Z,1018.69
2018-05-14T07:43:38.992Z,1018.72
2018-05-14T07:45:06.477Z,1018.70
2018-05-14T07:46:33.872Z,1018.72
2018-05-14T07:48:01.271Z,1018.72
2018-05-14T07:49:28.721Z,1018.71
2018-05-14T07:50:56.398Z,1018.73
2018-05-14T07:52:23.825Z,1018.74
2018-05-14T07:53:51.304Z,1018.78
2018-05-14T07:55:18.927Z,1018.78
2018-05-14T07:56:46.416Z,1018.75
2018-05-14T07:58:13.835Z,1018.80
2018-05-14T07:59:41.310Z,1018.82
2018-05-14T08:01:08.863Z,1018.83
2018-05-14T08:02:36.398Z,1018.83
2018-05-14T08:04:03.910Z,1018.80
2018-05-14T08:05:31.649Z,1018.78
2018-05-14T08:06:58.956Z,1018.80
2018-05-14T08:08:26.558Z,1018.78
2018-05-14T08:09:54.166Z,1018.77
2018-05-14T08:11:21.799Z,1018.76
2018-05-14T08:12:49.330Z,1018.76
2018-05-14T08:14:16.947Z,1018.75
2018-05-14T08:15:44.550Z,1018.75
2018-05-14T08:17:11.805Z,1018.75
2018-05-14T08:18:39.521Z,1018.75
2018-05-14T08:20:06.933Z,1018.73
2018-05-14T08:21:34.604Z,1018.76
2018-05-14T08:23:01.758Z,1018.75
2018-05-14T08:24:29.232Z,1018.77
2018-05-14T08:25:56.691Z,1018.76
2018-05-14T08:27:24.291Z,1018.78
2018-05-14T08:28:51.891Z,1018.75
2018-05-14T08:30:19.501Z,1018.74
2018-05-14T08:31:46.859Z,1018.76
2018-05-14T08:33:14.519Z,1018.72
2018-05-14T08:34:42.144Z,1018.75
2018-05-14T08:36:09.436Z,1018.73
2018-05-14T08:37:37.072Z,1018.71
2018-05-14T08:39:04.551Z,1018.72
2018-05-14T08:40:31.961Z,1018.73
2018-05-14T08:41:59.423Z,1018.74
2018-05-14T08:43:27.063Z,1018.75
2018-05-14T08:44:54.646Z,1018.72
2018-05-14T08:46:22.292Z,1018.72
2018-05-14T08:47:49.726Z,1018.73
2018-05-14T08:49:17.338Z,1018.75
2018-05-14T08:50:44.887Z,1018.77
2018-05-14T08:52:12.527Z,1018.79
2018-05-14T08:53:39.882Z,1018.78
2018-05-14T08:55:07.425Z,1018.79
2018-05-14T08:56:35.006Z,1018.78
2018-05-14T08:58:02.624Z,1018.77
2018-05-14T08:59:30.199Z,1018.79
2018-05-14T09:00:57.468Z,1018.80
2018-05-14T09:02:25.093Z,1018.85
2018-05-14T09:03:52.785Z,1018.83
2018-05-14T09:05:20.554Z,1018.84
2018-05-14T09:06:47.875Z,1018.87
2018-05-14T09:08:15.473Z,1018.89
2018-05-14T09:09:42.939Z,1018.87
2018-05-14T09:11:10.485Z,1018.88
2018-05-14T09:12:38.092Z,1018.88
2018-05-14T09:14:05.708Z,1018.89
2018-05-14T09:15:33.165Z,1018.87
2018-05-14T09:17:00.708Z,1018.88
2018-05-14T09:18:28.124Z,1018.86
2018-05-14T09:19:55.695Z,1018.88
2018-05-14T09:21:23.185Z,1018.84
2018-05-14T09:22:50.711Z,1018.83
2018-05-14T09:24:18.317Z,1018.86
2018-05-14T09:25:45.895Z,1018.85
2018-05-14T09:27:13.426Z,1018.84
2018-05-14T09:28:40.996Z,1018.85
2018-05-14T09:30:08.450Z,1018.81
2018-05-14T09:31:35.947Z,1018.80
2018-05-14T09:33:03.471Z,1018.78
2018-05-14T09:34:31.022Z,1018.81
2018-05-14T09:35:58.476Z,1018.84
2018-05-14T09:37:25.659Z,1018.86
2018-05-14T09:38:53.236Z,1018.80
2018-05-14T09:40:20.842Z,1018.80
2018-05-14T09:41:48.497Z,1018.84
2018-05-14T09:43:15.914Z,1018.80
2018-05-14T09:44:43.616Z,1018.79
2018-05-14T09:46:11.139Z,1018.82
2018-05-14T09:47:38.565Z,1018.85
2018-05-14T09:49:06.171Z,1018.85
2018-05-14T09:50:33.642Z,1018.86
2018-05-14T09:52:01.142Z,1018.86
2018-05-14T09:53:28.663Z,1018.85
2018-05-14T09:54:56.137Z,1018.87
2018-05-14T09:56:23.741Z,1018.88
2018-05-14T09:57:51.370Z,1018.84
2018-05-14T09:59:18.950Z,1018.83
2018-05-14T10:00:46.626Z,1018.82
2018-05-14T10:02:14.223Z,1018.79
2018-05-14T10:03:41.930Z,1018.77
2018-05-14T10:05:09.209Z,1018.77
2018-05-14T10:06:36.860Z,1018.78
2018-05-14T10:08:04.157Z,1018.77
2018-05-14T10:09:31.670Z,1018.77
2018-05-14T10:10:59.268Z,1018.78
2018-05-14T10:12:26.695Z,1018.85
2018-05-14T10:13:54.271Z,1018.84
2018-05-14T10:15:21.974Z,1018.88
2018-05-14T10:16:49.532Z,1018.89
2018-05-14T10:18:17.132Z,1018.92
2018-05-14T10:19:44.669Z,1018.87
2018-05-14T10:21:12.069Z,1018.95
2018-05-14T10:22:39.593Z,1018.90
2018-05-14T10:24:07.042Z,1018.94
2018-05-14T10:25:34.588Z,1018.90
2018-05-14T10:27:02.028Z,1018.89
2018-05-14T10:28:29.665Z,1018.93
2018-05-14T10:29:57.118Z,1018.91
2018-05-14T10:31:24.728Z,1019.00
2018-05-14T10:32:52.135Z,1018.95
2018-05-14T10:34:19.852Z,1018.93
2018-05-14T10:35:47.255Z,1018.92
2018-05-14T10:37:14.923Z,1018.92
2018-05-14T10:38:42.456Z,1018.86
2018-05-14T10:40:09.915Z,1018.89
2018-05-14T10:41:37.420Z,1018.93
2018-05-14T10:43:05.086Z,1018.95
2018-05-14T10:44:32.552Z,1018.91
2018-05-14T10:46:00.219Z,1018.95
2018-05-14T10:47:27.616Z,1018.90
2018-05-14T10:48:55.432Z,1018.94
2018-05-14T10:50:22.878Z,1018.93
2018-05-14T10:51:50.369Z,1018.93
2018-05-14T10:53:17.924Z,1018.91
2018-05-14T10:54:45.486Z,1018.89
2018-05-14T10:56:12.845Z,1018.89
2018-05-14T10:57:40.396Z,1018.90
2018-05-14T10:59:07.841Z,1018.87
2018-05-14T11:00:35.153Z,1018.86
2018-05-14T11:02:02.733Z,1018.88
2018-05-14T11:03:30.305Z,1018.82
2018-05-14T11:04:58.021Z,1018.85
2018-05-14T11:06:25.641Z,1018.81
2018-05-14T11:07:53.181Z,1018.82
2018-05-14T11:09:20.980Z,1018.86
2018-05-14T11:10:48.631Z,1018.86
2018-05-14T11:12:16.142Z,1018.88
2018-05-14T11:13:43.757Z,1018.84
2018-05-14T11:15:11.433Z,1018.84
2018-05-14T11:16:39.000Z,1018.90
2018-05-14T11:18:06.586Z,1018.85
2018-05-14T11:19:33.932Z,1018.90
2018-05-14T11:21:01.628Z,1018.90
2018-05-14T11:22:29.072Z,1018.88
2018-05-14T11:23:56.751Z,1018.86
2018-05-14T11:25:24.308Z,1018.88
2018-05-14T11:26:52.051Z,1018.84
2018-05-14T11:28:19.552Z,1018.83
2018-05-14T11:29:47.241Z,1018.79
2018-05-14T11:31:15.004Z,1018.81
2018-05-14T11:32:42.539Z,1018.82
2018-05-14T11:34:10.276Z,1018.84
2018-05-14T11:35:37.774Z,1018.82
2018-05-14T11:37:05.424Z,1018.83
2018-05-14T11:38:33.031Z,1018.79
2018-05-14T11:40:00.316Z,1018.78
2018-05-14T11:41:27.993Z,1018.77
2018-05-14T11:42:55.516Z,1018.73
2018-05-14T11:44:23.119Z,1018.77
2018-05-14T11:45:50.758Z,1018.77
2018-05-14T11:47:18.329Z,1018.70
2018-05-14T11:48:45.861Z,1018.74
2018-05-14T11:50:13.352Z,1018.74
2018-05-14T11:51:41.134Z,1018.76
2018-05-14T11:53:08.510Z,1018.73
2018-05-14T11:54:36.014Z,1018.78
2018-05-14T11:56:03.841Z,1018.73
2018-05-14T11:57:31.288Z,1018.71
2018-05-14T11:58:58.801Z,1018.70
2018-05-14T12:00:26.417Z,1018.71
2018-05-14T12:01:54.029Z,1018.68
2018-05-14T12:03:21.527Z,1018.71
2018-05-14T12:04:49.246Z,1018.67
2018-05-14T12:06:16.992Z,1018.66
2018-05-14T12:07:44.662Z,1018.70
2018-05-14T12:09:12.235Z,1018.65
2018-05-14T12:10:39.798Z,1018.70
2018-05-14T12:12:07.367Z,1018.67
2018-05-14T12:13:34.813Z,1018.69
2018-05-14T12:15:02.541Z,1018.64
2018-05-14T12:16:29.957Z,1018.63
2018-05-14T12:17:57.658Z,1018.56
2018-05-14T12:19:25.213Z,1018.54
2018-05-14T12:20:52.815Z,1018.57
2018-05-14T12:22:20.503Z,1018.61
2018-05-14T12:23:48.138Z,1018.61
2018-05-14T12:25:15.982Z,1018.67
2018-05-14T12:26:43.549Z,1018.62
2018-05-14T12:28:11.273Z,1018.65
2018-05-14T12:29:38.889Z,1018.59
2018-05-14T12:31:06.741Z,1018.55
2018-05-14T12:32:34.351Z,1018.58
2018-05-14T12:34:01.803Z,1018.59
2018-05-14T12:35:29.381Z,1018.56
2018-05-14T12:36:57.110Z,1018.62
2018-05-14T12:38:24.837Z,1018.62
2018-05-14T12:39:52.394Z,1018.61
2018-05-14T12:41:19.910Z,1018.68
2018-05-14T12:42:47.570Z,1018.65
2018-05-14T12:44:15.075Z,1018.65
2018-05-14T12:45:42.622Z,1018.67
2018-05-14T12:47:10.196Z,1018.67
2018-05-14T12:48:37.732Z,1018.66
2018-05-14T12:50:05.250Z,1018.65
2018-05-14T12:51:32.835Z,1018.57
2018-05-14T12:53:00.477Z,1018.61
2018-05-14T12:54:27.948Z,1018.64
2018-05-14T12:55:55.674Z,1018.59
2018-05-14T12:57:23.359Z,1018.62
2018-05-14T12:58:50.916Z,1018.64
2018-05-14T13:00:18.642Z,1018.67
2018-05-14T13:01:46.256Z,1018.63
2018-05-14T13:03:13.893Z,1018.61
2018-05-14T13:04:41.483Z,1018.56
2018-05-14T13:06:09.223Z,1018.54
2018-05-14T13:07:36.836Z,1018.54
2018-05-14T13:09:04.326Z,1018.52
2018-05-14T13:10:32.088Z,1018.45
2018-05-14T13:11:59.661Z,1018.45
2018-05-14T13:13:27.300Z,1018.47
2018-05-14T13:14:54.952Z,1018.48
2018-05-14T13:16:22.555Z,1018.50
2018-05-14T13:17:50.178Z,1018.50
2018-05-14T13:19:17.829Z,1018.45
2018-05-14T13:20:45.379Z,1018.45
2018-05-14T13:22:13.023Z,1018.47
2018-05-14T13:23:40.735Z,1018.50
2018-05-14T13:25:08.393Z,1018.48
2018-05-14T13:26:35.957Z,1018.49
2018-05-14T13:28:03.629Z,1018.48
2018-05-14T13:29:31.377Z,1018.46
2018-05-14T13:30:58.904Z,1018.50
2018-05-14T13:32:26.487Z,1018.55
2018-05-14T13:33:54.116Z,1018.54
2018-05-14T13:35:21.793Z,1018.54
2018-05-14T13:36:49.516Z,1018.50
2018-05-14T13:38:17.164Z,1018.47
2018-05-14T13:39:44.729Z,1018.51
2018-05-14T13:41:12.206Z,1018.56
2018-05-14T13:42:39.838Z,1018.53
2018-05-14T13:44:07.384Z,1018.55
2018-05-14T13:45:35.166Z,1018.56
2018-05-14T13:47:02.629Z,1018.55
2018-05-14T13:48:29.922Z,1018.54
2018-05-14T13:49:57.627Z,1018.53
2018-05-14T13:51:25.204Z,1018.51
2018-05-14T13:52:52.947Z,1018.53
2018-05-14T13:54:20.521Z,1018.52
2018-05-14T13:55:48.153Z,1018.47
2018-05-14T13:57:15.725Z,1018.48
2018-05-14T13:58:43.398Z,1018.50
2018-05-14T14:00:10.873Z,1018.50
2018-05-14T14:01:38.446Z,1018.44
2018-05-14T14:03:06.148Z,1018.47
2018-05-14T14:04:33.615Z,1018.45
2018-05-14T14:06:01.323Z,1018.43
2018-05-14T14:07:28.776Z,1018.47
2018-05-14T14:08:56.375Z,1018.50
2018-05-14T14:10:23.987Z,1018.52
2018-05-14T14:11:51.702Z,1018.50
2018-05-14T14:13:19.120Z,1018.53
2018-05-14T14:14:46.526Z,1018.53
2018-05-14T14:16:14.159Z,1018.53
2018-05-14T14:17:41.782Z,1018.52
2018-05-14T14:19:09.283Z,1018.50
2018-05-14T14:20:36.695Z,1018.48
2018-05-14T14:22:04.245Z,1018.46
2018-05-14T14:23:31.887Z,1018.46
2018-05-14T14:24:59.421Z,1018.45
2018-05-14T14:26:27.227Z,1018.47
2018-05-14T14:27:54.853Z,1018.46
2018-05-14T14:29:22.377Z,1018.46
2018-05-14T14:30:50.125Z,1018.46
2018-05-14T14:32:17.847Z,1018.46
2018-05-14T14:33:45.216Z,1018.42
2018-05-14T14:35:12.786Z,1018.41
2018-05-14T14:36:40.475Z,1018.42
2018-05-14T14:38:07.953Z,1018.49
2018-05-14T14:39:35.718Z,1018.45
2018-05-14T14:41:03.245Z,1018.47
2018-05-14T14:42:30.887Z,1018.50
2018-05-14T14:43:58.201Z,1018.45
2018-05-14T14:45:25.812Z,1018.49
2018-05-14T14:46:53.379Z,1018.48
2018-05-14T14:48:21.016Z,1018.51
2018-05-14T14:49:48.650Z,1018.53
2018-05-14T14:51:16.402Z,1018.55
2018-05-14T14:52:44.001Z,1018.55
2018-05-14T14:54:11.442Z,1018.56
2018-05-14T14:55:39.076Z,1018.54
2018-05-14T14:57:06.645Z,1018.53
2018-05-14T14:58:34.151Z,1018.55
2018-05-14T15:00:01.662Z,1018.53
2018-05-14T15:01:29.206Z,1018.56
2018-05-14T15:02:56.820Z,1018.56
2018-05-14T15:04:24.490Z,1018.56
2018-05-14T15:05:52.064Z,1018.61
2018-05-14T15:07:19.661Z,1018.61
2018-05-14T15:08:47.190Z,1018.62
2018-05-14T15:10:14.993Z,1018.63
2018-05-14T15:11:42.362Z,1018.62
2018-05-14T15:13:09.828Z,1018.66
2018-05-14T15:14:37.389Z,1018.71
2018-05-14T15:16:04.864Z,1018.68
2018-05-14T15:17:32.451Z,1018.67
2018-05-14T15:18:59.901Z,1018.65
2018-05-14T15:20:27.596Z,1018.65
2018-05-14T15:21:55.112Z,1018.64
2018-05-14T15:23:22.594Z,1018.63
2018-05-14T15:24:50.172Z,1018.62
2018-05-14T15:26:17.565Z,1018.63
2018-05-14T15:27:44.919Z,1018.61
2018-05-14T15:29:12.620Z,1018.60
2018-05-14T15:30:40.089Z,1018.61
2018-05-14T15:32:07.580Z,1018.61
2018-05-14T15:33:35.104Z,1018.61
2018-05-14T15:35:02.721Z,1018.61
2018-05-14T15:36:30.183Z,1018.61
2018-05-14T15:37:57.666Z,1018.61
2018-05-14T15:39:25.359Z,1018.63
2018-05-14T15:40:53.009Z,1018.65
2018-05-14T15:42:20.479Z,1018.63
2018-05-14T15:43:48.048Z,1018.71
2018-05-14T15:45:15.605Z,1018.68
2018-05-14T15:46:43.184Z,1018.70
2018-05-14T15:48:10.885Z,1018.72
2018-05-14T15:49:38.393Z,1018.73
2018-05-14T15:51:05.913Z,1018.77
2018-05-14T15:52:33.560Z,1018.73
2018-05-14T15:54:01.066Z,1018.72
2018-05-14T15:55:28.650Z,1018.73
2018-05-14T15:56:56.155Z,1018.73
2018-05-14T15:58:23.694Z,1018.72
2018-05-14T15:59:51.261Z,1018.75
2018-05-14T16:01:18.675Z,1018.76
2018-05-14T16:02:46.164Z,1018.76
2018-05-14T16:04:13.754Z,1018.79
2018-05-14T16:05:41.292Z,1018.77
2018-05-14T16:07:08.801Z,1018.74
2018-05-14T16:08:36.432Z,1018.76
2018-05-14T16:10:04.054Z,1018.78
2018-05-14T16:11:31.433Z,1018.74
2018-05-14T16:12:58.943Z,1018.73
2018-05-14T16:14:26.272Z,1018.72
2018-05-14T16:15:53.976Z,1018.73
2018-05-14T16:17:21.437Z,1018.73
2018-05-14T16:18:49.112Z,1018.71
2018-05-14T16:20:16.673Z,1018.72
2018-05-14T16:21:44.073Z,1018.72
2018-05-14T16:23:11.701Z,1018.70
2018-05-14T16:24:39.428Z,1018.70
2018-05-14T16:26:07.052Z,1018.69
2018-05-14T16:27:34.421Z,1018.73
2018-05-14T16:29:01.899Z,1018.72
2018-05-14T16:30:29.525Z,1018.73
2018-05-14T16:31:57.078Z,1018.78
2018-05-14T16:33:24.860Z,1018.75
2018-05-14T16:34:52.175Z,1018.77
2018-05-14T16:36:19.795Z,1018.75
2018-05-14T16:37:47.523Z,1018.74
2018-05-14T16:39:14.957Z,1018.73
2018-05-14T16:40:42.541Z,1018.71
2018-05-14T16:42:10.165Z,1018.72
2018-05-14T16:43:37.617Z,1018.75
2018-05-14T16:45:04.919Z,1018.76
2018-05-14T16:46:32.505Z,1018.74
2018-05-14T16:48:00.078Z,1018.73
2018-05-14T16:49:27.614Z,1018.75
2018-05-14T16:50:55.239Z,1018.74
2018-05-14T16:52:22.843Z,1018.76
2018-05-14T16:53:50.369Z,1018.79
2018-05-14T16:55:17.895Z,1018.78
2018-05-14T16:56:45.390Z,1018.79
2018-05-14T16:58:12.884Z,1018.80
2018-05-14T16:59:40.428Z,1018.80
2018-05-14T17:01:07.828Z,1018.83
2018-05-14T17:02:35.315Z,1018.82
2018-05-14T17:04:02.888Z,1018.80
2018-05-14T17:05:30.311Z,1018.84
2018-05-14T17:06:58.882Z,1018.81
2018-05-14T17:08:25.565Z,1018.83
2018-05-14T17:09:53.045Z,1018.84
2018-05-14T17:11:20.641Z,1018.84
2018-05-14T17:12:48.097Z,1018.86
2018-05-14T17:14:15.727Z,1018.86
2018-05-14T17:15:43.146Z,1018.87
2018-05-14T17:17:10.592Z,1018.90
2018-05-14T17:18:38.088Z,1018.88
2018-05-14T17:20:05.324Z,1018.91
2018-05-14T17:21:32.938Z,1018.90
2018-05-14T17:23:00.491Z,1018.88
2018-05-14T17:24:28.174Z,1018.88
2018-05-14T17:25:55.588Z,1018.93
2018-05-14T17:27:23.288Z,1018.93
2018-05-14T17:28:50.707Z,1018.94
2018-05-14T17:30:18.293Z,1018.95
2018-05-14T17:31:45.725Z,1018.95
2018-05-14T17:33:13.140Z,1018.95
2018-05-14T17:34:40.644Z,1018.95
2018-05-14T17:36:08.117Z,1018.95
2018-05-14T17:37:35.798Z,1018.99